• Join FlightAware (Why Join?)
  • Login
  • US Flag 
09:42PM EST


 

Airport Tracker/Info


-or-


 

Live Flight TrackerFlight Track Log ✈ WIG7306 ✈ 29-Aug-2013 ✈ KALB - KEWR

Flight Track Log - Related Links

Times and Time Zones

All times are in EDT time to prevent confusion due to time zone crossing. See the WIG7306 flight status page for this flight to view local times or setup timezone preferences in your user account.

Time Position Orientation Groundspeed Altitude Reporting Facility
EDT Latitude Longitude Course Direction KTS MPH feet Rate Location/Type
10:12PM 42.7422 -73.8083 206° Southwest 67 77 1,000  Level Boston Center
10:13PM 42.7214 -73.8136 191° South 93 107 1,800 900 Climbing Boston Center
10:14PM 42.6983 -73.8272 203° Southwest 103 119 2,800 960 Climbing Boston Center
10:15PM 42.6731 -73.8492 213° Southwest 111 128 3,800 960 Climbing Boston Center
10:16PM 42.6478 -73.8683 209° Southwest 117 135 4,700 1,020 Climbing Boston Center
10:17PM 42.6119 -73.8958 209° Southwest 120 138 5,900 900 Climbing Boston Center
10:18PM 42.5156 -73.8448 206° Southwest  Level Estimated
10:18PM 42.5889 -73.9150 211° Southwest 122 140 6,600  Level Boston Center
10:19PM 42.5553 -73.9394 208° Southwest 124 143 7,700 660 Climbing Boston Center
10:20PM 42.5214 -73.9642 208° Southwest 134 154 8,000 120 Climbing Boston Center
10:21PM 42.4836 -73.9969 213° Southwest 184 212 8,000  Level Boston Center
10:22PM 42.4414 -74.0297 210° Southwest 177 204 8,100  Climbing Boston Center
10:23PM 42.3992 -74.0594 207° Southwest 170 196 8,000 -60 Descending Boston Center
10:24PM 42.3569 -74.0950 212° Southwest 171 197 8,000  Level Boston Center
10:25PM 42.3108 -74.1275 208° Southwest 174 200 8,000  Level Boston Center
10:26PM 42.2644 -74.1597 207° Southwest 174 200 8,000  Level Boston Center
10:27PM 42.2286 -74.1869 209° Southwest 174 200 8,000  Level Boston Center
10:28PM 42.1842 -74.2222 210° Southwest 168 193 8,000  Level Boston Center
10:29PM 42.1464 -74.2489 208° Southwest 168 193 8,000  Level Boston Center
10:30PM 42.1000 -74.2814 207° Southwest 168 193 8,000  Level Boston Center
10:31PM 42.0619 -74.3081 207° Southwest 168 193 8,000  Level Boston Center
10:32PM 42.0156 -74.3431 209° Southwest 175 201 8,000  Level Boston Center
10:33PM 41.9778 -74.3586 197° South 175 201 8,000  Level Boston Center
10:34PM 41.9272 -74.3822 199° South 175 201 8,000  Level Boston Center
10:35PM 41.8875 -74.4006 199° South 175 201 8,000  Level Boston Center
10:36PM 41.8350 -74.4211 196° South 175 201 8,000  Level Boston Center
10:37PM 41.7931 -74.4367 195° South 175 201 8,000  Level Boston Center
10:38PM 41.7447 -74.4575 198° South 170 196 8,000  Level Boston Center
10:39PM 41.7028 -74.4756 198° South 170 196 8,000  Level Boston Center
10:40PM 41.6522 -74.4961 197° South 170 196 8,000  Level Boston Center
10:41PM 41.6103 -74.5114 195° South 170 196 8,000 -420 Level Boston Center
10:42PM 41.5556 -74.5375 200° South 180 207 7,200 -720 Descending Boston Center
10:43PM 41.5117 -74.5525 194° South 190 219 6,600 -600 Descending Boston Center
10:44PM 41.4569 -74.5728 196° South 185 213 6,000 -360 Descending Boston Center
10:45PM 41.4192 -74.5883 197° South 185 213 6,000  Level Boston Center
10:46PM 41.3689 -74.6058 195° South 171 197 6,000  Level Boston Center
10:47PM 41.3333 -74.6167 193° South 166 191 6,000  Level New York TRACON
10:48PM 41.2833 -74.6333 194° South 165 190 6,000 -120 Level New York TRACON
10:49PM 41.2500 -74.6333 180° South 166 191 5,800 -600 Descending New York TRACON
10:50PM 41.2167 -74.6000 143° Southeast 189 217 4,900 -960 Descending New York TRACON
10:51PM 41.1833 -74.5500 132° Southeast 187 215 4,000 -480 Descending New York TRACON
10:52PM 41.1500 -74.5000 132° Southeast 160 184 4,000  Level New York TRACON
10:53PM 41.1167 -74.4500 131° Southeast 159 183 4,000 -540 Level New York TRACON
10:54PM 41.0667 -74.4500 180° South 177 204 3,000 -480 Descending New York TRACON
10:55PM 41.0333 -74.4667 201° Southwest 159 183 3,000  Level New York TRACON
10:56PM 40.9833 -74.4667 180° South 152 175 3,000  Level New York TRACON
10:57PM 40.9500 -74.4667 180° South 156 180 3,000  Level New York TRACON
10:58PM 40.9000 -74.4667 180° South 157 181 3,000  Level New York TRACON
10:59PM 40.8500 -74.4500 166° South 155 178 3,000  Level New York TRACON
11:00PM 40.8167 -74.4167 143° Southeast 158 182 3,000 -300 Level New York TRACON
11:01PM 40.7667 -74.4000 166° South 170 196 2,500 -540 Descending New York TRACON
11:02PM 40.7333 -74.3833 159° South 156 180 2,000 -300 Descending New York TRACON
11:03PM 40.7167 -74.3500 123° Southeast 153 176 2,000 -180 Level New York TRACON
11:04PM 40.7167 -74.3000 90° East 150 173 1,700 -480 Descending New York TRACON
11:05PM 40.7000 -74.2500 114° Southeast 110 127 1,100 -600 Descending New York TRACON
11:06PM 40.7000 -74.2000 90° East 110 127 500 -600 Descending New York TRACON